createdAt,value
2018-12-21T08:30:17.635Z,136.00
2018-12-21T08:31:17.621Z,156.00
2018-12-21T08:32:17.623Z,172.00
2018-12-21T08:33:17.610Z,176.00
2018-12-21T08:34:17.583Z,180.00
2018-12-21T08:35:17.564Z,164.00
2018-12-21T08:36:17.594Z,148.00
2018-12-21T08:37:17.551Z,172.00
2018-12-21T08:38:17.529Z,180.00
2018-12-21T08:39:17.784Z,188.00
2018-12-21T08:40:17.517Z,176.00
2018-12-21T08:41:17.500Z,176.00
2018-12-21T08:42:17.490Z,168.00
2018-12-21T08:43:18.226Z,148.00
2018-12-21T08:44:17.466Z,144.00
2018-12-21T08:45:17.964Z,152.00
2018-12-21T08:46:17.439Z,164.00
2018-12-21T08:47:17.510Z,152.00
2018-12-21T08:48:17.477Z,136.00
2018-12-21T08:49:18.651Z,144.00
2018-12-21T08:50:17.658Z,164.00
2018-12-21T08:51:17.390Z,168.00
2018-12-21T08:52:17.385Z,168.00
2018-12-21T08:53:17.451Z,192.00
2018-12-21T08:54:17.619Z,220.00
2018-12-21T08:55:17.399Z,228.00
2018-12-21T08:56:17.335Z,224.00
2018-12-21T08:57:17.321Z,208.00
2018-12-21T08:58:17.336Z,204.00
2018-12-21T08:59:17.369Z,224.00
2018-12-21T09:00:17.292Z,216.00
2018-12-21T09:01:17.278Z,204.00
2018-12-21T09:02:17.265Z,204.00
2018-12-21T09:03:17.253Z,224.00
2018-12-21T09:04:17.496Z,228.00
2018-12-21T09:05:18.050Z,216.00
2018-12-21T09:06:18.569Z,224.00
2018-12-21T09:07:17.260Z,244.00
2018-12-21T09:08:17.201Z,272.00
2018-12-21T09:09:17.247Z,320.00
2018-12-21T09:10:17.172Z,356.00
2018-12-21T09:11:18.305Z,376.00
2018-12-21T09:12:17.193Z,376.00
2018-12-21T09:13:17.253Z,376.00
2018-12-21T09:14:17.130Z,304.00
2018-12-21T09:15:17.131Z,204.00
2018-12-21T09:16:17.122Z,164.00
2018-12-21T09:17:17.151Z,156.00
2018-12-21T09:18:17.354Z,152.00
2018-12-21T09:19:17.374Z,136.00
2018-12-21T09:24:17.012Z,148.00
2018-12-21T09:25:17.027Z,200.00
2018-12-21T09:26:17.005Z,212.00
2018-12-21T09:27:17.006Z,220.00
2018-12-21T09:28:16.967Z,240.00
2018-12-21T09:29:16.968Z,244.00
2018-12-21T09:31:17.027Z,284.00
2018-12-21T09:32:16.927Z,304.00
2018-12-21T09:33:16.913Z,332.00
2018-12-21T09:34:18.153Z,368.00
2018-12-21T09:35:16.922Z,376.00
2018-12-21T09:36:16.900Z,360.00
2018-12-21T09:37:16.868Z,408.00
2018-12-21T09:39:16.972Z,456.00
2018-12-21T09:40:16.852Z,440.00
2018-12-21T09:41:16.846Z,448.00
2018-12-21T09:42:16.814Z,404.00
2018-12-21T09:43:16.953Z,376.00
2018-12-21T09:44:16.792Z,364.00
2018-12-21T09:45:17.222Z,388.00
2018-12-21T09:46:16.773Z,432.00
2018-12-21T09:47:16.847Z,440.00
2018-12-21T09:48:16.792Z,416.00
2018-12-21T09:49:16.746Z,432.00
2018-12-21T09:50:16.972Z,428.00
2018-12-21T09:51:18.958Z,500.00
2018-12-21T09:52:16.735Z,544.00
2018-12-21T09:53:16.692Z,448.00
2018-12-21T09:55:16.687Z,400.00
2018-12-21T09:59:16.710Z,392.00
2018-12-21T10:00:18.307Z,436.00
2018-12-21T10:01:38.630Z,476.00
2018-12-21T10:02:38.873Z,508.00
2018-12-21T10:03:38.652Z,524.00
2018-12-21T10:04:38.589Z,596.00
2018-12-21T10:05:38.600Z,680.00
2018-12-21T10:06:38.601Z,732.00
2018-12-21T10:07:38.758Z,672.00
2018-12-21T10:08:38.546Z,612.00
2018-12-21T10:09:39.315Z,644.00
2018-12-21T10:10:39.248Z,660.00
2018-12-21T10:11:38.603Z,672.00
2018-12-21T10:12:38.552Z,648.00
2018-12-21T10:13:38.485Z,652.00
2018-12-21T10:14:38.813Z,668.00
2018-12-21T10:16:38.536Z,760.00
2018-12-21T10:17:38.706Z,724.00
2018-12-21T10:18:38.700Z,620.00
2018-12-21T10:19:38.464Z,512.00
2018-12-21T10:20:38.413Z,468.00
2018-12-21T10:21:38.401Z,488.00
2018-12-21T10:23:38.387Z,716.00
2018-12-21T10:24:38.373Z,636.00
2018-12-21T10:25:38.408Z,672.00
2018-12-21T10:26:43.806Z,672.00
2018-12-21T10:27:38.788Z,652.00
2018-12-21T10:28:38.435Z,692.00
2018-12-21T10:29:38.308Z,672.00
2018-12-21T10:30:38.309Z,600.00
2018-12-21T10:31:38.295Z,632.00
2018-12-21T10:32:38.295Z,700.00
2018-12-21T10:33:38.270Z,716.00
2018-12-21T10:34:38.512Z,704.00
2018-12-21T10:35:38.240Z,740.00
2018-12-21T10:36:38.278Z,760.00
2018-12-21T10:37:38.225Z,728.00
2018-12-21T10:38:38.318Z,664.00
2018-12-21T10:39:38.488Z,656.00
2018-12-21T10:40:38.189Z,728.00
2018-12-21T10:41:38.187Z,760.00
2018-12-21T10:43:38.457Z,768.00
2018-12-21T10:44:38.140Z,788.00
2018-12-21T10:45:41.694Z,828.00
2018-12-21T10:46:38.181Z,900.00
2018-12-21T10:47:38.111Z,900.00
2018-12-21T10:48:38.189Z,832.00
2018-12-21T10:51:38.123Z,764.00
2018-12-21T10:52:38.991Z,696.00
2018-12-21T10:53:39.397Z,652.00
2018-12-21T10:54:38.029Z,612.00
2018-12-21T10:55:38.269Z,620.00
2018-12-21T10:56:38.006Z,680.00
2018-12-21T10:57:38.081Z,620.00
2018-12-21T10:58:37.988Z,692.00
2018-12-21T10:59:43.384Z,868.00
2018-12-21T11:00:37.966Z,888.00
2018-12-21T11:01:39.008Z,808.00
2018-12-21T11:02:37.945Z,784.00
2018-12-21T11:03:38.191Z,808.00
2018-12-21T11:04:37.913Z,808.00
2018-12-21T11:07:37.922Z,780.00
2018-12-21T11:08:37.882Z,756.00
2018-12-21T11:09:37.867Z,760.00
2018-12-21T11:10:37.854Z,772.00
2018-12-21T11:11:37.908Z,800.00
2018-12-21T11:12:37.837Z,816.00
2018-12-21T11:13:37.814Z,828.00
2018-12-21T11:14:38.665Z,852.00
2018-12-21T11:15:37.867Z,872.00
2018-12-21T11:16:37.793Z,940.00
2018-12-21T11:18:37.812Z,808.00
2018-12-21T11:19:37.756Z,848.00
2018-12-21T11:20:37.739Z,836.00
2018-12-21T11:22:37.803Z,924.00
2018-12-21T11:24:37.705Z,924.00
2018-12-21T11:25:37.697Z,900.00
2018-12-21T11:26:37.672Z,908.00
2018-12-21T11:27:37.716Z,856.00
2018-12-21T11:28:37.665Z,908.00
2018-12-21T11:29:37.674Z,948.00
2018-12-21T11:30:37.638Z,948.00
2018-12-21T11:32:37.606Z,980.00
2018-12-21T11:33:37.596Z,968.00
2018-12-21T11:34:37.593Z,912.00
2018-12-21T11:35:37.614Z,832.00
2018-12-21T11:36:37.817Z,832.00
2018-12-21T11:37:37.551Z,800.00
2018-12-21T11:38:37.791Z,768.00
2018-12-21T11:39:37.529Z,760.00
2018-12-21T11:42:37.801Z,800.00
2018-12-21T11:43:37.766Z,776.00
2018-12-21T11:44:37.589Z,772.00
2018-12-21T11:45:37.465Z,800.00
2018-12-21T11:46:37.490Z,736.00
2018-12-21T11:48:37.744Z,728.00
2018-12-21T11:49:37.486Z,780.00
2018-12-21T11:51:37.447Z,680.00
2018-12-21T11:52:37.390Z,808.00
2018-12-21T11:53:37.412Z,748.00
2018-12-21T11:56:59.608Z,724.00
2018-12-21T11:57:59.634Z,736.00
2018-12-21T12:01:00.141Z,788.00
2018-12-21T12:03:59.683Z,724.00
2018-12-21T12:04:59.526Z,632.00
2018-12-21T12:05:59.578Z,644.00
2018-12-21T12:06:59.499Z,740.00
2018-12-21T12:10:21.842Z,808.00
2018-12-21T12:11:21.580Z,796.00
2018-12-21T12:12:21.577Z,820.00
2018-12-21T12:13:21.617Z,800.00
2018-12-21T12:14:21.541Z,760.00
2018-12-21T12:15:21.532Z,780.00
2018-12-21T12:19:21.488Z,504.00
2018-12-21T12:23:21.502Z,444.00
2018-12-21T12:25:21.623Z,580.00
2018-12-21T12:29:21.633Z,836.00
2018-12-21T12:30:21.366Z,776.00
2018-12-21T12:32:21.664Z,784.00
2018-12-21T12:33:21.326Z,780.00
2018-12-21T12:36:21.296Z,756.00
2018-12-21T12:39:21.694Z,880.00
2018-12-21T12:43:21.221Z,780.00
2018-12-21T12:44:21.197Z,800.00
2018-12-21T12:45:21.197Z,796.00
2018-12-21T12:49:21.150Z,848.00
2018-12-21T12:51:21.119Z,848.00
2018-12-21T12:53:21.102Z,800.00
2018-12-21T12:56:24.229Z,844.00
2018-12-21T13:00:21.461Z,852.00
2018-12-21T13:03:20.999Z,736.00
2018-12-21T13:04:20.992Z,684.00
2018-12-21T13:09:20.916Z,612.00
2018-12-21T13:13:20.970Z,420.00
2018-12-21T13:27:20.713Z,660.00
2018-12-21T13:28:20.705Z,640.00
2018-12-21T13:31:21.150Z,468.00
2018-12-21T13:32:20.706Z,468.00
2018-12-21T13:34:23.111Z,524.00
2018-12-21T13:35:20.659Z,532.00
2018-12-21T13:37:20.613Z,600.00
2018-12-21T13:39:24.736Z,588.00
2018-12-21T13:41:20.753Z,612.00
2018-12-21T13:48:20.734Z,512.00
2018-12-21T13:51:20.439Z,408.00
2018-12-21T13:57:20.626Z,308.00
2018-12-21T14:04:20.297Z,364.00
2018-12-21T14:12:20.639Z,280.00
2018-12-21T14:50:41.460Z,124.00
